createdAt,value
2023-06-05T00:00:48.466Z,7.75
2023-06-05T00:05:11.241Z,7.67
2023-06-05T00:09:14.528Z,7.61
2023-06-05T00:13:17.344Z,7.55
2023-06-05T00:17:20.624Z,7.49
2023-06-05T00:21:24.304Z,7.43
2023-06-05T00:25:26.485Z,7.35
2023-06-05T00:29:28.757Z,7.38
2023-06-05T00:33:31.811Z,7.32
2023-06-05T00:37:34.668Z,7.30
2023-06-05T00:41:38.716Z,7.28
2023-06-05T00:45:41.964Z,7.22
2023-06-05T00:49:44.410Z,7.12
2023-06-05T00:53:48.457Z,7.05
2023-06-05T00:57:50.828Z,7.06
2023-06-05T01:01:55.439Z,6.94
2023-06-05T01:06:04.193Z,6.86
2023-06-05T01:10:07.506Z,6.87
2023-06-05T01:14:19.241Z,6.85
2023-06-05T01:18:24.313Z,6.85
2023-06-05T01:22:27.351Z,6.76
2023-06-05T01:26:37.653Z,6.75
2023-06-05T01:30:54.072Z,6.67
2023-06-05T01:34:57.099Z,6.63
2023-06-05T01:39:01.513Z,6.62
2023-06-05T01:43:06.808Z,6.57
2023-06-05T01:47:09.339Z,6.54
2023-06-05T01:51:11.377Z,6.46
2023-06-05T01:55:24.480Z,6.47
2023-06-05T01:59:26.652Z,6.43
2023-06-05T02:03:29.167Z,6.42
2023-06-05T02:07:34.151Z,6.37
2023-06-05T02:11:38.435Z,6.35
2023-06-05T02:15:42.478Z,6.27
2023-06-05T02:19:44.587Z,6.33
2023-06-05T02:23:46.797Z,6.31
2023-06-05T02:27:49.097Z,6.36
2023-06-05T02:31:51.259Z,6.33
2023-06-05T02:35:53.434Z,6.30
2023-06-05T02:39:55.672Z,6.29
2023-06-05T02:43:57.988Z,6.35
2023-06-05T02:47:59.993Z,6.38
2023-06-05T02:52:02.036Z,6.39
2023-06-05T02:56:05.615Z,6.42
2023-06-05T03:00:15.740Z,6.49
2023-06-05T03:04:22.358Z,6.55
2023-06-05T03:08:27.981Z,6.66
2023-06-05T03:12:30.603Z,6.76
2023-06-05T03:16:38.876Z,6.85
2023-06-05T03:20:41.920Z,7.01
2023-06-05T03:24:44.763Z,7.18
2023-06-05T03:28:48.152Z,7.30
2023-06-05T03:32:52.244Z,7.46
2023-06-05T03:36:55.079Z,7.64
2023-06-05T03:40:57.385Z,7.79
2023-06-05T03:45:00.283Z,7.99
2023-06-05T03:49:09.786Z,8.20
2023-06-05T03:53:14.826Z,8.42
2023-06-05T03:57:17.948Z,8.66
2023-06-05T04:01:20.303Z,8.91
2023-06-05T04:05:22.467Z,9.15
2023-06-05T04:09:25.210Z,9.40
2023-06-05T04:13:27.832Z,9.63
2023-06-05T04:17:30.228Z,9.91
2023-06-05T04:21:32.364Z,10.13
2023-06-05T04:25:34.406Z,10.41
2023-06-05T04:29:37.970Z,10.67
2023-06-05T04:33:40.469Z,10.94
2023-06-05T04:37:42.630Z,11.19
2023-06-05T04:41:49.036Z,11.44
2023-06-05T04:45:58.268Z,11.82
2023-06-05T04:50:04.481Z,12.05
2023-06-05T04:54:07.016Z,12.27
2023-06-05T04:58:09.476Z,12.58
2023-06-05T05:02:12.763Z,12.83
2023-06-05T05:06:17.621Z,13.08
2023-06-05T05:10:19.870Z,13.41
2023-06-05T05:14:22.125Z,13.68
2023-06-05T05:18:24.393Z,13.90
2023-06-05T05:22:27.272Z,14.15
2023-06-05T05:26:31.316Z,14.46
2023-06-05T05:30:34.546Z,14.75
2023-06-05T05:34:36.813Z,14.95
2023-06-05T05:38:38.929Z,15.15
2023-06-05T05:42:41.038Z,15.45
2023-06-05T05:46:43.061Z,15.73
2023-06-05T05:50:45.172Z,15.89
2023-06-05T05:54:47.415Z,16.15
2023-06-05T05:58:49.313Z,16.51
2023-06-05T06:02:52.824Z,16.75
2023-06-05T06:06:57.592Z,17.03
2023-06-05T06:11:01.602Z,17.37
2023-06-05T06:15:05.522Z,17.52
2023-06-05T06:19:07.658Z,17.77
2023-06-05T06:23:09.687Z,17.97
2023-06-05T06:31:18.763Z,18.15
2023-06-05T06:35:21.368Z,18.41
2023-06-05T06:39:25.676Z,18.53
2023-06-05T06:43:27.718Z,18.72
2023-06-05T06:47:37.951Z,19.05
2023-06-05T06:51:39.992Z,19.45
2023-06-05T06:55:42.114Z,19.80
2023-06-05T06:59:44.444Z,19.96
2023-06-05T07:03:46.558Z,20.09
2023-06-05T07:07:48.653Z,20.34
2023-06-05T07:11:50.889Z,20.51
2023-06-05T07:15:53.141Z,20.51
2023-06-05T07:19:55.306Z,20.79
2023-06-05T07:23:57.382Z,20.67
2023-06-05T07:28:00.957Z,21.10
2023-06-05T07:32:07.330Z,21.25
2023-06-05T07:36:11.654Z,21.67
2023-06-05T07:40:13.791Z,21.72
2023-06-05T07:44:18.320Z,21.51
2023-06-05T07:48:21.072Z,21.74
2023-06-05T07:52:23.183Z,22.12
2023-06-05T07:56:26.491Z,21.93
2023-06-05T08:00:29.357Z,22.03
2023-06-05T08:04:31.599Z,22.21
2023-06-05T08:08:33.774Z,22.14
2023-06-05T08:12:36.166Z,22.26
2023-06-05T08:16:38.237Z,22.73
2023-06-05T08:20:41.158Z,22.78
2023-06-05T08:24:43.283Z,22.42
2023-06-05T08:28:45.288Z,22.11
2023-06-05T08:32:47.650Z,22.42
2023-06-05T08:36:49.623Z,22.84
2023-06-05T08:40:59.682Z,22.88
2023-06-05T08:45:03.637Z,22.86
2023-06-05T08:49:11.865Z,22.82
2023-06-05T08:53:19.153Z,23.16
2023-06-05T08:57:23.293Z,23.20
2023-06-05T09:01:26.826Z,23.26
2023-06-05T09:05:28.874Z,23.36
2023-06-05T09:09:32.378Z,23.44
2023-06-05T09:14:01.465Z,23.39
2023-06-05T09:18:09.155Z,23.65
2023-06-05T09:22:13.336Z,23.61
2023-06-05T09:26:16.403Z,23.86
2023-06-05T09:30:18.662Z,24.05
2023-06-05T09:34:30.970Z,24.11
2023-06-05T09:38:34.125Z,24.09
2023-06-05T09:42:36.688Z,23.86
2023-06-05T09:46:56.395Z,23.99
2023-06-05T09:51:09.439Z,24.36
2023-06-05T09:55:11.850Z,24.32
2023-06-05T09:59:21.299Z,24.41
2023-06-05T10:03:23.677Z,24.07
2023-06-05T10:07:26.336Z,24.28
2023-06-05T10:11:28.578Z,24.16
2023-06-05T10:15:33.192Z,24.02
2023-06-05T10:19:36.269Z,24.36
2023-06-05T10:23:38.847Z,24.53
2023-06-05T10:27:41.127Z,24.49
2023-06-05T10:31:52.161Z,24.57
2023-06-05T10:36:06.823Z,24.48
2023-06-05T10:40:10.628Z,24.74
2023-06-05T10:44:13.890Z,24.33
2023-06-05T10:48:17.613Z,24.32
2023-06-05T10:52:38.231Z,24.68
2023-06-05T10:56:52.855Z,25.06
2023-06-05T11:01:21.401Z,25.19
2023-06-05T11:05:24.470Z,24.87
2023-06-05T11:09:26.262Z,25.05
2023-06-05T11:13:54.390Z,25.09
2023-06-05T11:17:56.573Z,25.14
2023-06-05T11:22:12.744Z,25.30
2023-06-05T11:26:40.529Z,25.19
2023-06-05T11:30:49.862Z,25.35
2023-06-05T11:34:57.586Z,25.39
2023-06-05T11:38:59.879Z,25.50
2023-06-05T11:43:06.714Z,25.69
2023-06-05T11:47:22.651Z,25.70
2023-06-05T11:51:24.886Z,25.89
2023-06-05T11:55:43.776Z,25.52
2023-06-05T11:59:46.100Z,25.85
2023-06-05T12:03:49.247Z,25.76
2023-06-05T12:07:52.047Z,26.19
2023-06-05T12:12:06.865Z,26.13
2023-06-05T12:16:09.286Z,25.34
2023-06-05T12:20:11.646Z,25.63
2023-06-05T12:24:14.118Z,26.02
2023-06-05T12:28:21.352Z,26.26
2023-06-05T12:32:26.011Z,26.30
2023-06-05T12:36:29.941Z,26.20
2023-06-05T12:40:37.811Z,26.23
2023-06-05T12:44:40.862Z,26.50
2023-06-05T12:48:42.715Z,26.32
2023-06-05T12:52:45.943Z,26.62
2023-06-05T12:56:48.818Z,26.40
2023-06-05T13:00:51.529Z,26.28
2023-06-05T13:04:53.981Z,26.04
2023-06-05T13:08:55.969Z,25.91
2023-06-05T13:12:58.140Z,26.27
2023-06-05T13:21:06.189Z,26.47
2023-06-05T13:25:09.902Z,26.42
2023-06-05T13:29:12.477Z,26.25
2023-06-05T13:33:14.757Z,26.53
2023-06-05T13:37:16.881Z,25.98
2023-06-05T13:41:19.255Z,26.29
2023-06-05T13:45:21.377Z,26.24
2023-06-05T13:49:24.561Z,25.93
2023-06-05T13:53:26.621Z,26.06
2023-06-05T13:57:29.055Z,26.19
2023-06-05T14:01:32.414Z,26.52
2023-06-05T14:05:34.658Z,26.09
2023-06-05T14:09:37.515Z,26.20
2023-06-05T14:13:39.601Z,26.01
2023-06-05T14:17:41.785Z,26.31
2023-06-05T14:21:44.428Z,26.13
2023-06-05T14:25:46.729Z,26.39
2023-06-05T14:29:48.791Z,26.39
2023-06-05T14:33:50.951Z,26.20
2023-06-05T14:37:52.998Z,26.07
2023-06-05T14:41:55.106Z,26.05
2023-06-05T14:45:58.392Z,26.18
2023-06-05T14:50:00.964Z,26.19
2023-06-05T14:54:03.494Z,26.00
2023-06-05T14:58:07.053Z,25.97
2023-06-05T15:02:09.208Z,25.69
2023-06-05T15:06:20.877Z,25.65
2023-06-05T15:10:28.015Z,25.35
2023-06-05T15:14:30.954Z,25.59
2023-06-05T15:18:33.151Z,26.87
2023-06-05T15:22:35.358Z,28.09
2023-06-05T15:26:37.524Z,26.78
2023-06-05T15:30:39.602Z,25.93
2023-06-05T15:34:41.715Z,25.54
2023-06-05T15:38:43.367Z,25.04
2023-06-05T15:42:45.532Z,24.80
2023-06-05T15:46:47.791Z,24.59
2023-06-05T15:50:50.026Z,24.46
2023-06-05T15:54:55.832Z,24.31
2023-06-05T15:59:00.803Z,24.22
2023-06-05T16:03:03.067Z,24.04
2023-06-05T16:07:05.341Z,23.90
2023-06-05T16:11:08.416Z,23.75
2023-06-05T16:15:11.354Z,23.71
2023-06-05T16:19:13.927Z,23.57
2023-06-05T16:23:16.103Z,23.53
2023-06-05T16:27:20.625Z,23.42
2023-06-05T16:31:22.712Z,23.24
2023-06-05T16:35:25.343Z,23.08
2023-06-05T16:39:27.530Z,23.01
2023-06-05T16:43:29.721Z,22.96
2023-06-05T16:47:31.870Z,22.87
2023-06-05T16:51:34.072Z,22.80
2023-06-05T16:55:36.108Z,22.70
2023-06-05T16:59:39.889Z,22.68
2023-06-05T17:03:43.839Z,22.61
2023-06-05T17:07:47.556Z,22.41
2023-06-05T17:11:50.540Z,22.23
2023-06-05T17:15:52.771Z,22.14
2023-06-05T17:19:55.452Z,22.02
2023-06-05T17:23:58.204Z,21.92
2023-06-05T17:28:00.377Z,21.89
2023-06-05T17:32:02.959Z,21.84
2023-06-05T17:36:05.744Z,21.72
2023-06-05T17:40:08.519Z,21.61
2023-06-05T17:44:11.251Z,21.42
2023-06-05T17:48:13.659Z,21.26
2023-06-05T17:52:16.622Z,21.08
2023-06-05T17:56:18.731Z,20.89
2023-06-05T18:00:26.131Z,20.71
2023-06-05T18:04:28.420Z,20.48
2023-06-05T18:08:31.486Z,20.21
2023-06-05T18:12:34.483Z,19.94
2023-06-05T18:16:36.838Z,19.67
2023-06-05T18:20:39.319Z,19.38
2023-06-05T18:24:41.658Z,19.07
2023-06-05T18:28:44.029Z,18.83
2023-06-05T18:32:46.986Z,18.54
2023-06-05T18:36:49.159Z,18.14
2023-06-05T18:40:52.258Z,17.98
2023-06-05T18:44:54.309Z,17.76
2023-06-05T18:48:56.519Z,17.55
2023-06-05T18:52:58.990Z,17.28
2023-06-05T18:57:01.273Z,17.05
2023-06-05T19:01:04.318Z,16.81
2023-06-05T19:05:07.369Z,16.61
2023-06-05T19:09:10.698Z,16.44
2023-06-05T19:13:13.241Z,16.23
2023-06-05T19:17:15.443Z,16.09
2023-06-05T19:21:18.049Z,15.89
2023-06-05T19:25:20.725Z,15.71
2023-06-05T19:29:22.877Z,15.54
2023-06-05T19:33:26.183Z,15.25
2023-06-05T19:37:29.680Z,15.07
2023-06-05T19:41:32.943Z,14.90
2023-06-05T19:45:35.479Z,14.81
2023-06-05T19:49:38.573Z,14.75
2023-06-05T19:53:41.062Z,14.47
2023-06-05T19:57:43.415Z,14.40
2023-06-05T20:01:46.795Z,14.24
2023-06-05T20:05:49.284Z,14.06
2023-06-05T20:09:51.323Z,13.93
2023-06-05T20:13:54.732Z,13.85
2023-06-05T20:17:56.968Z,13.69
2023-06-05T20:22:04.817Z,13.58
2023-06-05T20:26:11.975Z,13.52
2023-06-05T20:30:14.519Z,13.41
2023-06-05T20:34:16.891Z,13.25
2023-06-05T20:38:21.201Z,13.17
2023-06-05T20:42:25.487Z,13.10
2023-06-05T20:46:27.779Z,13.04
2023-06-05T20:50:31.281Z,12.92
2023-06-05T20:54:33.747Z,12.83
2023-06-05T20:58:35.840Z,12.70
2023-06-05T21:02:38.057Z,12.63
2023-06-05T21:06:39.800Z,12.51
2023-06-05T21:10:42.666Z,12.45
2023-06-05T21:14:44.747Z,12.28
2023-06-05T21:18:46.920Z,12.39
2023-06-05T21:22:48.953Z,12.14
2023-06-05T21:26:51.075Z,11.90
2023-06-05T21:30:59.867Z,11.65
2023-06-05T21:35:02.018Z,11.68
2023-06-05T21:39:04.089Z,11.68
2023-06-05T21:43:06.399Z,11.64
2023-06-05T21:47:09.381Z,11.57
2023-06-05T21:51:11.923Z,11.58
2023-06-05T21:55:14.309Z,11.41
2023-06-05T21:59:16.646Z,11.48
2023-06-05T22:03:18.741Z,11.45
2023-06-05T22:07:21.429Z,11.26
2023-06-05T22:11:26.292Z,11.31
2023-06-05T22:15:29.751Z,11.14
2023-06-05T22:19:33.498Z,11.09
2023-06-05T22:23:35.677Z,11.01
2023-06-05T22:27:37.753Z,10.99
2023-06-05T22:31:40.644Z,10.93
2023-06-05T22:35:43.028Z,10.91
2023-06-05T22:39:45.332Z,10.84
2023-06-05T22:43:47.329Z,10.65
2023-06-05T22:47:50.352Z,10.43
2023-06-05T22:51:54.344Z,10.45
2023-06-05T22:55:56.476Z,10.32
2023-06-05T22:59:58.362Z,10.34
2023-06-05T23:04:00.717Z,10.32
2023-06-05T23:08:03.060Z,10.18
2023-06-05T23:12:05.645Z,10.16
2023-06-05T23:16:07.736Z,10.05
2023-06-05T23:20:10.959Z,10.18
2023-06-05T23:24:13.346Z,10.09
2023-06-05T23:28:16.019Z,9.92
2023-06-05T23:32:18.234Z,10.00
2023-06-05T23:36:20.342Z,10.00
2023-06-05T23:40:22.476Z,9.97
2023-06-05T23:44:24.786Z,9.92
2023-06-05T23:48:27.190Z,9.91
2023-06-05T23:52:29.327Z,9.86
2023-06-05T23:56:31.385Z,9.94
